createdAt,value
2022-12-25T00:01:25.735Z,100.00
2022-12-25T00:03:53.986Z,100.00
2022-12-25T00:06:21.746Z,100.00
2022-12-25T00:08:49.287Z,100.00
2022-12-25T00:11:20.384Z,100.00
2022-12-25T00:13:48.511Z,100.00
2022-12-25T00:16:25.606Z,100.00
2022-12-25T00:18:56.067Z,100.00
2022-12-25T00:21:23.809Z,100.00
2022-12-25T00:23:57.672Z,100.00
2022-12-25T00:26:26.784Z,100.00
2022-12-25T00:28:59.094Z,100.00
2022-12-25T00:31:27.675Z,100.00
2022-12-25T00:33:56.039Z,100.00
2022-12-25T00:36:24.331Z,100.00
2022-12-25T00:38:52.010Z,99.73
2022-12-25T00:41:42.580Z,100.00
2022-12-25T00:44:14.197Z,100.00
2022-12-25T00:46:42.645Z,100.00
2022-12-25T00:49:11.770Z,100.00
2022-12-25T00:51:39.589Z,100.00
2022-12-25T00:54:07.753Z,100.00
2022-12-25T00:56:35.584Z,100.00
2022-12-25T00:59:03.443Z,100.00
2022-12-25T01:01:31.073Z,100.00
2022-12-25T01:03:59.288Z,100.00
2022-12-25T01:06:27.602Z,100.00
2022-12-25T01:09:13.452Z,100.00
2022-12-25T01:11:41.433Z,97.11
2022-12-25T01:14:09.787Z,95.28
2022-12-25T01:16:38.066Z,95.41
2022-12-25T01:19:05.947Z,99.85
2022-12-25T01:21:33.602Z,100.00
2022-12-25T01:24:01.278Z,100.00
2022-12-25T01:26:29.304Z,100.00
2022-12-25T01:28:57.127Z,100.00
2022-12-25T01:31:26.958Z,100.00
2022-12-25T01:33:54.633Z,100.00
2022-12-25T01:36:26.060Z,100.00
2022-12-25T01:38:54.777Z,100.00
2022-12-25T01:41:24.838Z,100.00
2022-12-25T01:44:35.133Z,100.00
2022-12-25T01:47:04.371Z,100.00
2022-12-25T01:49:35.428Z,100.00
2022-12-25T01:52:12.272Z,100.00
2022-12-25T01:54:49.160Z,100.00
2022-12-25T01:57:38.223Z,100.00
2022-12-25T02:00:12.765Z,100.00
2022-12-25T02:02:42.477Z,100.00
2022-12-25T02:05:32.609Z,96.52
2022-12-25T02:08:09.760Z,94.33
2022-12-25T02:10:39.251Z,95.24
2022-12-25T02:13:08.350Z,94.30
2022-12-25T02:15:53.589Z,93.90
2022-12-25T02:18:53.301Z,94.11
2022-12-25T02:21:58.001Z,93.25
2022-12-25T02:25:00.227Z,95.87
2022-12-25T02:28:11.550Z,96.13
2022-12-25T02:30:51.715Z,98.56
2022-12-25T02:34:06.434Z,98.70
2022-12-25T02:36:50.458Z,98.58
2022-12-25T02:39:58.988Z,98.09
2022-12-25T02:42:50.313Z,100.00
2022-12-25T02:46:12.140Z,100.00
2022-12-25T02:49:24.920Z,99.64
2022-12-25T02:52:35.932Z,98.46
2022-12-25T02:55:28.326Z,99.55
2022-12-25T02:58:23.151Z,99.40
2022-12-25T03:01:18.074Z,97.77
2022-12-25T03:04:09.750Z,96.21
2022-12-25T03:06:44.478Z,95.66
2022-12-25T03:09:40.328Z,97.37
2022-12-25T03:12:27.021Z,97.03
2022-12-25T03:15:14.101Z,96.13
2022-12-25T03:17:42.504Z,96.39
2022-12-25T03:20:29.541Z,96.77
2022-12-25T03:23:16.231Z,95.96
2022-12-25T03:26:02.805Z,97.21
2022-12-25T03:28:30.378Z,98.61
2022-12-25T03:31:26.562Z,99.61
2022-12-25T03:34:31.812Z,100.00
2022-12-25T03:37:17.284Z,100.00
2022-12-25T03:40:40.634Z,100.00
2022-12-25T03:43:36.549Z,100.00
2022-12-25T03:46:28.989Z,100.00
2022-12-25T03:49:45.426Z,100.00
2022-12-25T03:52:35.313Z,100.00
2022-12-25T03:55:28.506Z,100.00
2022-12-25T03:58:14.686Z,100.00
2022-12-25T04:01:01.008Z,100.00
2022-12-25T04:03:47.301Z,100.00
2022-12-25T04:06:33.543Z,100.00
2022-12-25T04:09:19.646Z,100.00
2022-12-25T04:12:05.878Z,100.00
2022-12-25T04:14:52.099Z,100.00
2022-12-25T04:17:37.969Z,100.00
2022-12-25T04:20:24.895Z,100.00
2022-12-25T04:23:11.073Z,100.00
2022-12-25T04:25:57.065Z,100.00
2022-12-25T04:28:43.076Z,100.00
2022-12-25T04:31:29.429Z,100.00
2022-12-25T04:34:15.753Z,100.00
2022-12-25T04:36:43.304Z,100.00
2022-12-25T04:39:11.575Z,100.00
2022-12-25T04:41:39.152Z,100.00
2022-12-25T04:44:06.592Z,100.00
2022-12-25T04:46:34.179Z,100.00
2022-12-25T04:49:01.712Z,100.00
2022-12-25T04:51:29.297Z,100.00
2022-12-25T04:53:57.058Z,100.00
2022-12-25T04:56:24.568Z,100.00
2022-12-25T04:58:52.121Z,100.00
2022-12-25T05:01:19.765Z,100.00
2022-12-25T05:03:47.537Z,100.00
2022-12-25T05:06:15.125Z,100.00
2022-12-25T05:08:45.595Z,100.00
2022-12-25T05:11:16.220Z,100.00
2022-12-25T05:13:44.326Z,99.05
2022-12-25T05:16:18.947Z,97.00
2022-12-25T05:18:49.801Z,99.81
2022-12-25T05:21:19.346Z,100.00
2022-12-25T05:23:51.444Z,100.00
2022-12-25T05:26:23.010Z,100.00
2022-12-25T05:28:51.259Z,100.00
2022-12-25T05:31:20.193Z,100.00
2022-12-25T05:33:51.764Z,100.00
2022-12-25T05:36:19.908Z,100.00
2022-12-25T05:38:47.623Z,100.00
2022-12-25T05:41:15.393Z,100.00
2022-12-25T05:43:42.854Z,100.00
2022-12-25T05:46:11.538Z,100.00
2022-12-25T05:48:39.486Z,100.00
2022-12-25T05:51:10.984Z,100.00
2022-12-25T05:53:39.214Z,100.00
2022-12-25T05:56:08.975Z,100.00
2022-12-25T05:58:39.243Z,100.00
2022-12-25T06:01:24.757Z,100.00
2022-12-25T06:03:53.875Z,100.00
2022-12-25T06:06:22.111Z,100.00
2022-12-25T06:08:50.674Z,100.00
2022-12-25T06:11:18.442Z,100.00
2022-12-25T06:13:51.732Z,100.00
2022-12-25T06:16:20.175Z,100.00
2022-12-25T06:18:52.213Z,100.00
2022-12-25T06:21:22.401Z,100.00
2022-12-25T06:23:50.208Z,100.00
2022-12-25T06:26:20.366Z,100.00
2022-12-25T06:28:48.701Z,100.00
2022-12-25T06:31:22.595Z,100.00
2022-12-25T06:33:50.594Z,100.00
2022-12-25T06:36:25.261Z,100.00
2022-12-25T06:38:53.950Z,100.00
2022-12-25T06:41:27.525Z,100.00
2022-12-25T06:43:58.464Z,100.00
2022-12-25T06:46:29.480Z,98.59
2022-12-25T06:48:58.842Z,99.21
2022-12-25T06:51:30.473Z,100.00
2022-12-25T06:53:59.473Z,100.00
2022-12-25T06:56:30.424Z,100.00
2022-12-25T06:59:06.451Z,100.00
2022-12-25T07:01:54.941Z,100.00
2022-12-25T07:04:42.264Z,100.00
2022-12-25T07:07:10.665Z,100.00
2022-12-25T07:09:39.370Z,100.00
2022-12-25T07:12:21.951Z,98.18
2022-12-25T07:14:50.195Z,96.22
2022-12-25T07:17:19.548Z,95.44
2022-12-25T07:19:48.450Z,97.19
2022-12-25T07:22:17.345Z,97.17
2022-12-25T07:24:44.916Z,96.69
2022-12-25T07:27:12.505Z,97.16
2022-12-25T07:29:40.062Z,95.66
2022-12-25T07:32:10.091Z,97.02
2022-12-25T07:34:37.704Z,97.59
2022-12-25T07:37:05.573Z,96.15
2022-12-25T07:39:35.343Z,96.09
2022-12-25T07:42:02.927Z,94.47
2022-12-25T07:44:30.457Z,94.58
2022-12-25T07:46:59.822Z,92.33
2022-12-25T07:49:27.335Z,91.21
2022-12-25T07:51:54.903Z,90.24
2022-12-25T07:54:22.664Z,91.14
2022-12-25T07:56:53.806Z,90.37
2022-12-25T07:59:21.767Z,90.25
2022-12-25T08:01:51.266Z,88.69
2022-12-25T08:04:19.439Z,88.19
2022-12-25T08:06:47.015Z,88.91
2022-12-25T08:09:16.086Z,89.51
2022-12-25T08:11:47.574Z,87.44
2022-12-25T08:14:15.929Z,85.34
2022-12-25T08:16:43.461Z,86.29
2022-12-25T08:19:12.294Z,84.93
2022-12-25T08:21:39.854Z,85.21
2022-12-25T08:24:08.104Z,83.33
2022-12-25T08:26:35.703Z,82.27
2022-12-25T08:29:03.555Z,82.56
2022-12-25T08:31:34.236Z,81.38
2022-12-25T08:34:04.455Z,81.60
2022-12-25T08:36:32.061Z,80.44
2022-12-25T08:39:02.930Z,79.97
2022-12-25T08:41:31.399Z,79.42
2022-12-25T08:43:59.004Z,76.83
2022-12-25T08:46:26.553Z,77.81
2022-12-25T08:48:54.598Z,76.55
2022-12-25T08:51:24.215Z,76.88
2022-12-25T08:53:53.633Z,74.72
2022-12-25T08:56:21.348Z,75.37
2022-12-25T08:58:48.848Z,75.74
2022-12-25T09:01:16.440Z,73.89
2022-12-25T09:03:44.216Z,72.32
2022-12-25T09:06:15.462Z,73.27
2022-12-25T09:08:48.567Z,75.01
2022-12-25T09:11:18.719Z,71.70
2022-12-25T09:13:46.335Z,70.98
2022-12-25T09:16:18.728Z,70.57
2022-12-25T09:18:46.643Z,67.61
2022-12-25T09:21:16.209Z,68.10
2022-12-25T09:23:44.398Z,68.49
2022-12-25T09:26:16.066Z,65.19
2022-12-25T09:28:50.574Z,64.40
2022-12-25T09:31:20.669Z,63.13
2022-12-25T09:33:48.836Z,64.47
2022-12-25T09:36:16.417Z,63.82
2022-12-25T09:38:44.191Z,63.77
2022-12-25T09:41:23.707Z,61.18
2022-12-25T09:44:16.344Z,62.81
2022-12-25T09:46:56.307Z,60.57
2022-12-25T09:49:57.157Z,58.13
2022-12-25T09:52:50.203Z,60.83
2022-12-25T09:55:22.576Z,61.92
2022-12-25T09:57:57.199Z,59.40
2022-12-25T10:00:42.536Z,60.76
2022-12-25T10:03:27.899Z,63.52
2022-12-25T10:06:14.108Z,60.97
2022-12-25T10:09:18.991Z,61.89
2022-12-25T10:12:27.338Z,61.12
2022-12-25T10:15:30.730Z,61.11
2022-12-25T10:18:35.273Z,61.86
2022-12-25T10:21:11.011Z,63.93
2022-12-25T10:24:03.328Z,63.03
2022-12-25T10:26:33.813Z,60.75
2022-12-25T10:29:22.966Z,59.10
2022-12-25T10:31:55.466Z,58.99
2022-12-25T10:34:27.767Z,59.64
2022-12-25T10:36:55.704Z,56.90
2022-12-25T10:39:25.818Z,55.88
2022-12-25T10:42:03.589Z,56.82
2022-12-25T10:44:32.370Z,55.53
2022-12-25T10:47:03.789Z,54.17
2022-12-25T10:49:38.513Z,54.67
2022-12-25T10:52:22.491Z,54.68
2022-12-25T10:54:50.182Z,54.05
2022-12-25T13:15:20.704Z,38.78
2022-12-25T13:17:50.194Z,38.88
2022-12-25T13:20:55.025Z,39.51
2022-12-25T13:23:35.002Z,38.05
2022-12-25T13:26:11.452Z,37.17
2022-12-25T13:28:39.233Z,36.17
2022-12-25T13:31:13.249Z,35.29
2022-12-25T13:34:05.229Z,36.02
2022-12-25T13:36:40.174Z,35.35
2022-12-25T13:39:17.264Z,35.92
2022-12-25T13:42:09.422Z,35.14
2022-12-25T13:44:48.878Z,35.11
2022-12-25T13:47:37.962Z,37.94
2022-12-25T13:50:33.343Z,39.80
2022-12-25T13:53:17.120Z,40.16
2022-12-25T13:55:54.891Z,41.45
2022-12-25T13:58:33.773Z,42.08
2022-12-25T14:01:03.655Z,42.75
2022-12-25T14:03:42.000Z,42.64
2022-12-25T14:06:24.289Z,44.43
2022-12-25T14:08:53.398Z,43.97
2022-12-25T14:11:26.255Z,44.60
2022-12-25T14:14:05.629Z,45.75
2022-12-25T14:16:34.346Z,46.31
2022-12-25T14:19:04.691Z,46.12
2022-12-25T14:21:41.043Z,47.17
2022-12-25T14:24:15.880Z,48.15
2022-12-25T14:26:44.016Z,48.81
2022-12-25T14:29:19.154Z,48.98
2022-12-25T14:31:49.292Z,51.21
2022-12-25T14:34:23.823Z,50.56
2022-12-25T14:36:53.889Z,51.29
2022-12-25T14:39:37.722Z,51.51
2022-12-25T14:42:24.562Z,51.54
2022-12-25T14:45:21.078Z,51.68
2022-12-25T14:47:54.975Z,51.96
2022-12-25T14:50:37.432Z,53.71
2022-12-25T14:53:17.229Z,54.51
2022-12-25T14:55:50.655Z,52.95
2022-12-25T14:58:31.260Z,52.44
2022-12-25T15:01:02.129Z,52.16
2022-12-25T15:03:36.554Z,51.88
2022-12-25T15:06:19.549Z,51.16
2022-12-25T15:09:12.961Z,50.84
2022-12-25T15:11:40.548Z,52.29
2022-12-25T15:14:08.041Z,52.25
2022-12-25T15:16:46.181Z,52.84
2022-12-25T15:19:41.049Z,52.72
2022-12-25T15:22:13.477Z,54.13
2022-12-25T15:24:41.001Z,53.63
2022-12-25T15:27:18.859Z,53.68
2022-12-25T15:30:08.990Z,54.86
2022-12-25T15:32:34.167Z,55.25
2022-12-25T15:35:01.681Z,55.12
2022-12-25T15:37:29.185Z,55.46
2022-12-25T15:39:57.463Z,56.03
2022-12-25T15:42:25.965Z,57.30
2022-12-25T15:44:53.506Z,56.73
2022-12-25T15:47:21.157Z,57.30
2022-12-25T15:49:49.073Z,56.96
2022-12-25T15:52:18.278Z,59.57
2022-12-25T15:54:45.863Z,60.09
2022-12-25T15:57:26.804Z,60.41
2022-12-25T15:59:57.267Z,63.12
2022-12-25T16:02:25.160Z,63.05
2022-12-25T16:04:55.366Z,62.23
2022-12-25T16:07:28.994Z,63.62
2022-12-25T16:10:22.802Z,65.39
2022-12-25T16:12:50.405Z,66.58
2022-12-25T16:15:21.101Z,67.00
2022-12-25T16:17:48.739Z,67.71
2022-12-25T16:20:16.321Z,66.56
2022-12-25T16:22:43.960Z,65.44
2022-12-25T16:25:17.254Z,65.48
2022-12-25T16:27:45.102Z,63.24
2022-12-25T16:30:17.539Z,63.93
2022-12-25T16:32:51.167Z,64.22
2022-12-25T16:35:20.158Z,65.60
2022-12-25T16:37:49.084Z,65.01
2022-12-25T16:40:19.633Z,67.01
2022-12-25T16:42:47.960Z,69.74
2022-12-25T16:45:15.822Z,69.58
2022-12-25T16:47:43.281Z,68.67
2022-12-25T16:50:11.223Z,68.18
2022-12-25T16:52:38.875Z,70.29
2022-12-25T16:55:07.195Z,69.23
2022-12-25T16:57:34.925Z,68.72
2022-12-25T17:00:04.247Z,71.82
2022-12-25T17:02:33.931Z,69.35
2022-12-25T17:05:01.997Z,69.68
2022-12-25T17:07:29.494Z,66.75
2022-12-25T17:10:07.619Z,64.95
2022-12-25T17:12:35.246Z,62.55
2022-12-25T17:15:02.918Z,62.70
2022-12-25T17:17:30.483Z,66.58
2022-12-25T17:19:58.538Z,67.03
2022-12-25T17:22:26.220Z,68.26
2022-12-25T17:24:54.888Z,68.61
2022-12-25T17:27:22.451Z,69.76
2022-12-25T17:29:50.129Z,69.90
2022-12-25T17:32:20.021Z,70.66
2022-12-25T17:34:48.988Z,69.72
2022-12-25T17:37:36.833Z,71.13
2022-12-25T17:40:07.620Z,71.62
2022-12-25T17:42:35.577Z,72.20
2022-12-25T17:45:04.536Z,73.09
2022-12-25T17:47:32.304Z,68.93
2022-12-25T17:50:00.292Z,71.86
2022-12-25T17:52:29.353Z,70.86
2022-12-25T17:54:56.874Z,70.70
2022-12-25T17:57:24.401Z,70.96
2022-12-25T17:59:51.873Z,71.25
2022-12-25T18:02:20.141Z,70.93
2022-12-25T18:04:48.270Z,70.20
2022-12-25T18:07:18.303Z,69.55
2022-12-25T18:09:46.115Z,69.02
2022-12-25T18:12:13.753Z,69.42
2022-12-25T18:14:41.338Z,67.56
2022-12-25T18:17:09.138Z,68.00
2022-12-25T18:19:36.638Z,65.31
2022-12-25T18:22:04.141Z,64.19
2022-12-25T18:24:31.659Z,64.60
2022-12-25T18:26:59.221Z,65.87
2022-12-25T18:29:27.368Z,69.63
2022-12-25T18:31:55.738Z,69.73
2022-12-25T18:34:23.446Z,69.12
2022-12-25T18:36:50.915Z,70.53
2022-12-25T18:39:19.598Z,68.98
2022-12-25T18:42:05.729Z,71.67
2022-12-25T18:44:33.251Z,73.50
2022-12-25T18:47:00.820Z,73.99
2022-12-25T18:49:28.348Z,73.22
2022-12-25T18:52:48.165Z,73.97
2022-12-25T18:54:43.678Z,72.93
2022-12-25T18:57:11.159Z,71.63
2022-12-25T18:59:38.762Z,70.95
2022-12-25T19:02:07.453Z,71.38
2022-12-25T19:04:36.695Z,71.14
2022-12-25T19:07:04.491Z,72.73
2022-12-25T19:09:33.995Z,71.18
2022-12-25T19:12:01.993Z,68.91
2022-12-25T19:14:47.751Z,68.05
2022-12-25T19:17:17.261Z,66.69
2022-12-25T19:19:45.344Z,66.40
2022-12-25T19:22:15.318Z,68.29
2022-12-25T19:24:45.190Z,69.51
2022-12-25T19:27:14.481Z,71.47
2022-12-25T19:29:44.168Z,70.31
2022-12-25T19:32:12.288Z,70.62
2022-12-25T19:34:42.397Z,71.19
2022-12-25T19:37:13.750Z,71.49
2022-12-25T19:39:46.883Z,71.96
2022-12-25T19:42:16.761Z,73.06
2022-12-25T19:44:44.672Z,73.98
2022-12-25T19:47:13.944Z,73.84
2022-12-25T19:49:43.941Z,74.16
2022-12-25T19:52:13.987Z,75.48
2022-12-25T19:54:42.358Z,77.85
2022-12-25T19:57:10.186Z,77.00
2022-12-25T19:59:39.462Z,76.63
2022-12-25T20:02:11.174Z,76.22
2022-12-25T20:04:39.705Z,76.96
2022-12-25T20:07:07.265Z,77.73
2022-12-25T20:09:36.173Z,77.81
2022-12-25T20:12:05.426Z,78.89
2022-12-25T20:14:33.158Z,79.69
2022-12-25T20:17:00.760Z,80.11
2022-12-25T20:19:28.410Z,77.72
2022-12-25T20:21:56.050Z,78.31
2022-12-25T20:24:24.747Z,78.82
2022-12-25T20:26:58.640Z,78.81
2022-12-25T20:29:27.885Z,79.64
2022-12-25T20:31:55.415Z,79.53
2022-12-25T20:34:23.275Z,79.63
2022-12-25T20:36:51.527Z,79.38
2022-12-25T20:39:19.308Z,81.10
2022-12-25T20:41:47.636Z,80.79
2022-12-25T20:44:15.383Z,81.75
2022-12-25T20:46:43.509Z,80.86
2022-12-25T20:49:13.526Z,80.17
2022-12-25T20:51:41.179Z,80.30
2022-12-25T20:54:12.779Z,79.60
2022-12-25T20:56:40.471Z,80.14
2022-12-25T20:59:09.271Z,80.17
2022-12-25T21:01:36.918Z,80.33
2022-12-25T21:04:04.685Z,79.29
2022-12-25T21:06:32.484Z,79.18
2022-12-25T21:09:00.306Z,78.15
2022-12-25T21:11:28.079Z,79.10
2022-12-25T21:13:55.705Z,78.59
2022-12-25T21:16:24.591Z,78.18
2022-12-25T21:18:53.971Z,77.99
2022-12-25T21:21:22.883Z,79.07
2022-12-25T21:23:51.279Z,80.37
2022-12-25T21:26:31.899Z,82.48
2022-12-25T21:29:03.263Z,81.97
2022-12-25T21:31:52.403Z,83.14
2022-12-25T21:34:19.899Z,84.05
2022-12-25T21:36:47.620Z,84.39
2022-12-25T21:39:16.083Z,84.71
2022-12-25T21:41:44.140Z,84.48
2022-12-25T21:44:12.596Z,85.81
2022-12-25T21:46:40.600Z,86.39
2022-12-25T21:49:10.946Z,86.63
2022-12-25T21:51:58.423Z,88.66
2022-12-25T21:54:25.957Z,89.08
2022-12-25T21:56:53.592Z,90.07
2022-12-25T21:59:22.872Z,89.71
2022-12-25T22:01:52.661Z,89.77
2022-12-25T22:04:23.389Z,88.97
2022-12-25T22:07:10.141Z,89.17
2022-12-25T22:09:38.220Z,88.76
2022-12-25T22:12:30.221Z,88.55
2022-12-25T22:15:03.999Z,88.69
2022-12-25T22:17:57.935Z,89.04
2022-12-25T22:20:38.231Z,88.27
2022-12-25T22:23:06.405Z,89.29
2022-12-25T22:25:33.933Z,89.33
2022-12-25T22:28:01.548Z,90.54
2022-12-25T22:30:30.300Z,91.11
2022-12-25T22:32:58.420Z,89.86
2022-12-25T22:35:26.062Z,89.65
2022-12-25T22:37:54.182Z,89.65
2022-12-25T22:40:22.516Z,90.49
2022-12-25T22:42:53.987Z,90.00
2022-12-25T22:45:21.507Z,90.45
2022-12-25T22:47:49.533Z,91.38
2022-12-25T22:50:17.097Z,91.97
2022-12-25T22:52:45.882Z,91.71
2022-12-25T22:55:18.904Z,91.72
2022-12-25T22:57:47.022Z,91.70
2022-12-25T23:00:14.806Z,92.72
2022-12-25T23:02:43.660Z,93.81
2022-12-25T23:05:11.294Z,95.32
2022-12-25T23:07:39.072Z,96.28
2022-12-25T23:10:07.780Z,94.73
2022-12-25T23:12:54.168Z,92.10
2022-12-25T23:15:22.023Z,90.36
2022-12-25T23:18:15.803Z,89.84
2022-12-25T23:21:01.732Z,90.58
2022-12-25T23:23:47.936Z,92.92
2022-12-25T23:26:17.990Z,94.56
2022-12-25T23:29:04.267Z,95.60
2022-12-25T23:31:36.777Z,93.87
2022-12-25T23:34:06.452Z,93.29
2022-12-25T23:36:34.884Z,88.08
2022-12-25T23:39:09.738Z,85.49
2022-12-25T23:41:41.510Z,88.76
2022-12-25T23:44:11.280Z,92.37
2022-12-25T23:46:39.386Z,93.60
2022-12-25T23:49:08.140Z,93.59
2022-12-25T23:51:38.041Z,94.72
2022-12-25T23:54:08.647Z,91.38
2022-12-25T23:56:36.702Z,91.23
2022-12-25T23:59:06.086Z,90.49
